Time;durP1;ratioP1;P1;durP2;ratioP2;P2;SDS_P1;SDS_P2;PMS_P1;PMS_P2;Temp;Humidity;BMP_temperature;BMP_pressure;BME280_temperature;BME280_humidity;BME280_pressure;Samples;Min_cycle;Max_cycle;Signal;HPM_P1;HPM_P2
2021/05/26 00:01:50;;;;;;;0.80;0.80;;;9.30;99.90;;;;;;4904381;29;20411;-86
2021/05/26 00:04:16;;;;;;;0.70;0.70;;;9.30;99.90;;;;;;4888035;29;20405;-79
2021/05/26 00:06:41;;;;;;;0.80;0.80;;;9.30;99.90;;;;;;4896676;29;20410;-82
2021/05/26 00:09:07;;;;;;;1.10;0.73;;;9.30;99.90;;;;;;4906403;29;20407;-80
2021/05/26 00:11:33;;;;;;;0.80;0.80;;;9.30;99.90;;;;;;4892896;29;20450;-82
2021/05/26 00:13:58;;;;;;;0.70;0.70;;;9.40;99.90;;;;;;4913368;29;20423;-81
2021/05/26 00:16:25;;;;;;;0.65;0.65;;;9.30;99.90;;;;;;4908864;29;20418;-82
2021/05/26 00:18:51;;;;;;;1.20;0.80;;;9.40;99.90;;;;;;4896020;29;20542;-82
2021/05/26 00:21:18;;;;;;;0.90;0.90;;;9.40;99.90;;;;;;4883378;29;20415;-84
2021/05/26 00:23:43;;;;;;;0.77;0.70;;;9.30;99.90;;;;;;4924851;29;20483;-87
2021/05/26 00:26:09;;;;;;;1.10;0.70;;;9.30;99.90;;;;;;4901648;29;20457;-80
2021/05/26 00:28:34;;;;;;;1.27;0.77;;;9.30;99.90;;;;;;4911136;29;20411;-81
2021/05/26 00:31:00;;;;;;;0.70;0.70;;;9.30;99.90;;;;;;4934981;29;20418;-81
2021/05/26 00:33:26;;;;;;;0.65;0.65;;;9.30;99.90;;;;;;4911129;29;20412;-78
2021/05/26 00:35:52;;;;;;;0.70;0.70;;;9.20;99.90;;;;;;4899099;29;20404;-77
2021/05/26 00:38:18;;;;;;;0.83;0.83;;;9.30;99.90;;;;;;4906212;29;20404;-84
2021/05/26 00:40:43;;;;;;;0.60;0.60;;;9.20;99.90;;;;;;4899775;29;20442;-84
2021/05/26 00:43:09;;;;;;;1.15;0.90;;;9.20;99.90;;;;;;4909284;29;20919;-81
2021/05/26 00:45:35;;;;;;;0.77;0.70;;;9.10;99.90;;;;;;4890127;29;20498;-80
2021/05/26 00:48:01;;;;;;;0.93;0.70;;;9.10;99.90;;;;;;4911792;29;21047;-80
2021/05/26 00:50:29;;;;;;;0.80;0.80;;;9.10;99.90;;;;;;4882433;29;21455;-83
2021/05/26 00:52:58;;;;;;;0.68;0.68;;;9.10;99.90;;;;;;4900303;29;20410;-80
2021/05/26 00:55:24;;;;;;;0.70;0.70;;;9.10;99.90;;;;;;4892257;29;20399;-80
2021/05/26 00:57:50;;;;;;;0.73;0.73;;;9.10;99.90;;;;;;4881694;29;20752;-80
2021/05/26 01:00:21;;;;;;;0.98;0.88;;;9.00;99.90;;;;;;4894869;29;20423;-81
2021/05/26 01:02:51;;;;;;;0.80;0.80;;;9.00;99.90;;;;;;4917222;29;20444;-79
2021/05/26 01:05:22;;;;;;;0.70;0.70;;;9.00;99.90;;;;;;4912494;29;20415;-77
2021/05/26 01:07:48;;;;;;;0.75;0.75;;;9.00;99.90;;;;;;4920521;29;20411;-84
2021/05/26 01:10:16;;;;;;;0.70;0.70;;;9.10;99.90;;;;;;4897097;29;20424;-83
2021/05/26 01:13:02;;;;;;;0.80;0.80;;;9.00;99.90;;;;;;4909319;29;20400;-80
2021/05/26 01:15:28;;;;;;;0.70;0.70;;;9.00;99.90;;;;;;4877942;29;20427;-82
2021/05/26 01:17:54;;;;;;;0.80;0.80;;;9.10;99.90;;;;;;4892735;29;20395;-82
2021/05/26 01:20:29;;;;;;;0.63;0.63;;;9.10;99.90;;;;;;4901291;29;20389;-84
2021/05/26 01:22:57;;;;;;;0.68;0.68;;;9.10;99.90;;;;;;4872599;29;20422;-79
2021/05/26 01:25:24;;;;;;;0.80;0.80;;;9.20;99.90;;;;;;4902848;29;20429;-79
2021/05/26 01:27:51;;;;;;;0.70;0.70;;;9.20;99.90;;;;;;4891339;29;20415;-78
2021/05/26 01:30:17;;;;;;;0.80;0.80;;;9.10;99.90;;;;;;4906844;29;20412;-79
2021/05/26 01:32:47;;;;;;;0.70;0.70;;;9.20;99.90;;;;;;4896630;29;20403;-83
2021/05/26 01:35:15;;;;;;;0.70;0.70;;;9.20;99.90;;;;;;4918758;29;20768;-79
2021/05/26 01:37:42;;;;;;;0.68;0.68;;;9.20;99.90;;;;;;4887009;29;20426;-80
2021/05/26 01:40:09;;;;;;;0.80;0.80;;;9.20;99.90;;;;;;4918305;29;20408;-84
2021/05/26 01:42:34;;;;;;;0.80;0.80;;;9.20;99.90;;;;;;4903253;29;20790;-81
2021/05/26 01:45:00;;;;;;;0.77;0.77;;;9.30;99.90;;;;;;4898491;29;20423;-84
2021/05/26 01:47:29;;;;;;;0.55;0.55;;;9.30;99.90;;;;;;4929067;29;21071;-78
2021/05/26 01:49:55;;;;;;;0.73;0.73;;;9.40;99.90;;;;;;4899361;29;20430;-79
2021/05/26 01:52:21;;;;;;;0.60;0.60;;;9.30;99.90;;;;;;4908841;29;20538;-81
2021/05/26 01:54:47;;;;;;;0.82;0.82;;;9.40;99.90;;;;;;4881704;29;20431;-79
2021/05/26 01:57:13;;;;;;;0.60;0.60;;;9.40;99.90;;;;;;4911588;29;20437;-80
2021/05/26 01:59:40;;;;;;;0.60;0.60;;;9.40;99.90;;;;;;4903102;29;20846;-86
2021/05/26 02:02:07;;;;;;;0.80;0.80;;;9.40;99.90;;;;;;4902569;29;20520;-82
2021/05/26 02:04:33;;;;;;;0.80;0.77;;;9.40;99.90;;;;;;4902312;29;20461;-84
2021/05/26 02:07:03;;;;;;;1.00;0.90;;;9.40;99.90;;;;;;4915196;29;20424;-80
2021/05/26 02:09:30;;;;;;;0.70;0.70;;;9.40;99.90;;;;;;4892957;29;20424;-84
2021/05/26 02:14:41;;;;;;;0.60;0.60;;;9.40;99.90;;;;;;4900266;29;20411;-80
2021/05/26 02:17:07;;;;;;;0.90;0.90;;;9.40;99.90;;;;;;4910883;29;20412;-81
2021/05/26 02:19:33;;;;;;;0.80;0.80;;;9.40;99.90;;;;;;4901173;29;20416;-82
2021/05/26 02:21:59;;;;;;;0.77;0.70;;;9.40;99.90;;;;;;4877360;29;20441;-77
2021/05/26 02:24:27;;;;;;;0.60;0.60;;;9.40;99.90;;;;;;4901058;29;20903;-79
2021/05/26 02:26:52;;;;;;;0.60;0.60;;;9.40;99.90;;;;;;4899310;29;20419;-79
2021/05/26 02:29:18;;;;;;;0.73;0.63;;;9.40;99.90;;;;;;4920335;29;20503;-82
2021/05/26 02:31:44;;;;;;;0.70;0.70;;;9.30;99.90;;;;;;4872709;29;20423;-80
2021/05/26 02:34:12;;;;;;;0.70;0.70;;;9.30;99.90;;;;;;4915312;29;20775;-80
2021/05/26 02:36:40;;;;;;;0.70;0.70;;;9.30;99.90;;;;;;4892101;29;20407;-80
2021/05/26 02:39:08;;;;;;;0.85;0.82;;;9.30;99.90;;;;;;4883545;29;22265;-80
2021/05/26 02:41:36;;;;;;;0.98;0.80;;;9.20;99.90;;;;;;4909559;29;20412;-81
2021/05/26 02:44:02;;;;;;;0.70;0.70;;;9.20;99.90;;;;;;4902238;29;20444;-83
2021/05/26 02:46:27;;;;;;;0.77;0.77;;;9.10;99.90;;;;;;4931257;29;20386;-79
2021/05/26 02:48:53;;;;;;;0.88;0.80;;;9.10;99.90;;;;;;4896049;29;20422;-79
2021/05/26 02:51:20;;;;;;;0.90;0.90;;;9.10;99.90;;;;;;4878338;29;20430;-89
2021/05/26 02:53:45;;;;;;;0.85;0.80;;;9.10;99.90;;;;;;4871891;29;20415;-81
2021/05/26 02:56:11;;;;;;;0.70;0.70;;;9.00;99.90;;;;;;4888237;29;20412;-78
2021/05/26 02:58:38;;;;;;;0.80;0.80;;;9.00;99.90;;;;;;4900038;29;20406;-81
2021/05/26 03:01:29;;;;;;;0.73;0.73;;;9.00;99.90;;;;;;4910457;29;20416;-78
2021/05/26 03:04:02;;;;;;;0.88;0.88;;;9.00;99.90;;;;;;4905176;29;20918;-80
2021/05/26 03:06:32;;;;;;;0.70;0.70;;;9.00;99.90;;;;;;4914321;29;20415;-80
2021/05/26 03:08:59;;;;;;;0.80;0.80;;;9.00;99.90;;;;;;4894129;29;20400;-83
2021/05/26 03:11:34;;;;;;;0.80;0.80;;;9.00;99.90;;;;;;4895924;29;20468;-80
2021/05/26 03:14:21;;;;;;;0.95;0.93;;;9.00;99.90;;;;;;4909373;29;20411;-78
2021/05/26 03:16:51;;;;;;;1.05;0.98;;;9.00;99.90;;;;;;4900451;29;20415;-80
2021/05/26 03:19:18;;;;;;;0.85;0.85;;;8.90;99.90;;;;;;4878143;29;20411;-80
2021/05/26 03:21:45;;;;;;;0.80;0.80;;;8.90;99.90;;;;;;4882044;29;20412;-80
2021/05/26 03:24:47;;;;;;;0.80;0.80;;;8.90;99.90;;;;;;4920141;29;24235;-80
2021/05/26 03:27:13;;;;;;;0.73;0.73;;;8.90;99.90;;;;;;4880163;29;20945;-80
2021/05/26 03:29:39;;;;;;;0.80;0.80;;;8.90;99.90;;;;;;4898089;29;20408;-80
2021/05/26 03:32:04;;;;;;;0.80;0.80;;;9.00;99.90;;;;;;4898765;29;20410;-81
2021/05/26 03:34:30;;;;;;;0.80;0.80;;;9.00;99.90;;;;;;4911588;29;20493;-81
2021/05/26 03:36:56;;;;;;;0.70;0.70;;;9.10;99.90;;;;;;4921189;29;20403;-87
2021/05/26 03:39:21;;;;;;;0.70;0.70;;;9.10;99.90;;;;;;4882922;29;20412;-80
2021/05/26 03:41:47;;;;;;;0.77;0.77;;;9.20;99.90;;;;;;4888635;29;20416;-81
2021/05/26 03:44:13;;;;;;;0.73;0.73;;;9.30;99.90;;;;;;4908594;29;20480;-83
2021/05/26 03:46:39;;;;;;;1.00;0.88;;;9.30;99.90;;;;;;4895011;29;20805;-77
2021/05/26 03:49:06;;;;;;;1.58;1.13;;;9.30;99.90;;;;;;4908730;29;20415;-80
2021/05/26 03:51:33;;;;;;;3.40;1.10;;;9.40;99.90;;;;;;4888026;29;20415;-78
2021/05/26 03:53:59;;;;;;;0.93;0.93;;;9.40;99.90;;;;;;4921409;29;20426;-83
2021/05/26 03:56:36;;;;;;;0.88;0.88;;;9.40;99.90;;;;;;4901395;29;20409;-84
2021/05/26 03:59:05;;;;;;;1.10;1.00;;;9.50;99.90;;;;;;4901309;29;20431;-80
2021/05/26 04:01:33;;;;;;;0.80;0.80;;;9.50;99.90;;;;;;4909265;29;25163;-80
2021/05/26 04:03:59;;;;;;;1.00;0.95;;;9.50;99.90;;;;;;4905148;29;20515;-80
2021/05/26 04:06:24;;;;;;;0.87;0.87;;;9.60;99.90;;;;;;4881061;29;20440;-79
2021/05/26 04:08:51;;;;;;;1.05;0.90;;;9.70;99.90;;;;;;4895297;29;20411;-82
2021/05/26 04:11:17;;;;;;;0.67;0.53;;;9.70;99.90;;;;;;4889663;29;20404;-81
2021/05/26 04:13:55;;;;;;;1.60;0.90;;;9.80;99.90;;;;;;4904231;29;20472;-82
2021/05/26 04:16:49;;;;;;;0.60;0.60;;;9.80;99.90;;;;;;4896195;29;20765;-82
2021/05/26 04:19:48;;;;;;;1.48;1.38;;;9.90;99.90;;;;;;4891722;29;20415;-81
2021/05/26 04:22:14;;;;;;;0.82;0.82;;;10.00;99.90;;;;;;4905788;29;20423;-80
2021/05/26 04:24:48;;;;;;;0.88;0.88;;;10.10;99.90;;;;;;4894459;29;20420;-83
2021/05/26 04:27:13;;;;;;;0.80;0.80;;;10.10;99.90;;;;;;4894912;29;20411;-83
2021/05/26 04:29:42;;;;;;;2.60;0.80;;;10.20;99.90;;;;;;4914536;29;20502;-82
2021/05/26 04:32:07;;;;;;;0.80;0.80;;;10.30;99.90;;;;;;4907531;29;20419;-84
2021/05/26 04:34:33;;;;;;;0.83;0.83;;;10.50;99.90;;;;;;4907664;29;20433;-80
2021/05/26 04:36:58;;;;;;;0.90;0.82;;;10.70;99.90;;;;;;4881808;29;20394;-79
2021/05/26 04:39:24;;;;;;;1.13;0.97;;;10.80;99.90;;;;;;4910664;29;20403;-79
2021/05/26 04:41:50;;;;;;;1.00;0.90;;;10.90;99.90;;;;;;4907579;29;20417;-81
2021/05/26 04:44:15;;;;;;;1.37;0.77;;;11.00;99.90;;;;;;4891125;29;20543;-80
2021/05/26 04:46:41;;;;;;;0.60;0.60;;;11.10;99.90;;;;;;4901168;29;20418;-79
2021/05/26 04:49:07;;;;;;;0.68;0.68;;;11.10;99.90;;;;;;4895894;29;20415;-78
2021/05/26 04:51:33;;;;;;;0.73;0.73;;;11.10;99.90;;;;;;4907963;29;20398;-77
2021/05/26 04:53:58;;;;;;;1.15;1.05;;;11.10;99.90;;;;;;4907710;29;20411;-79
2021/05/26 04:56:24;;;;;;;3.23;2.20;;;11.00;99.90;;;;;;4893938;29;20483;-76
2021/05/26 04:58:50;;;;;;;0.80;0.80;;;11.00;99.90;;;;;;4905722;29;20459;-75
2021/05/26 05:01:16;;;;;;;1.57;0.80;;;11.20;99.90;;;;;;4897332;29;20497;-78
2021/05/26 05:03:42;;;;;;;0.82;0.82;;;11.30;99.90;;;;;;4896799;29;20450;-79
2021/05/26 05:06:08;;;;;;;1.00;0.90;;;11.50;99.90;;;;;;4881315;29;20459;-85
2021/05/26 05:08:34;;;;;;;0.80;0.80;;;11.60;99.90;;;;;;4919393;29;20432;-86
2021/05/26 05:10:59;;;;;;;0.60;0.60;;;11.70;99.90;;;;;;4936948;29;20471;-87
2021/05/26 05:13:25;;;;;;;1.47;1.00;;;11.70;99.90;;;;;;4907938;29;20474;-87
2021/05/26 05:15:51;;;;;;;0.75;0.75;;;11.80;99.90;;;;;;4904302;29;20492;-84
2021/05/26 05:18:16;;;;;;;0.70;0.70;;;11.80;99.90;;;;;;4902515;29;20889;-79
2021/05/26 05:20:42;;;;;;;2.00;1.00;;;11.90;99.90;;;;;;4902624;29;20416;-78
2021/05/26 05:23:07;;;;;;;0.80;0.80;;;12.00;99.90;;;;;;4901632;29;20475;-80
2021/05/26 05:25:33;;;;;;;1.70;0.70;;;12.10;99.90;;;;;;4913488;29;20429;-79
2021/05/26 05:27:59;;;;;;;0.93;0.90;;;12.10;99.90;;;;;;4899271;29;20480;-81
2021/05/26 05:30:25;;;;;;;0.90;0.90;;;12.20;99.90;;;;;;4877468;29;20473;-79
2021/05/26 05:32:50;;;;;;;1.45;1.10;;;12.30;99.90;;;;;;4911794;29;20940;-78
2021/05/26 05:35:16;;;;;;;0.70;0.70;;;12.40;99.90;;;;;;4906557;29;20765;-83
2021/05/26 05:37:42;;;;;;;1.20;0.90;;;12.50;99.90;;;;;;4914084;29;20403;-81
2021/05/26 05:40:08;;;;;;;0.90;0.90;;;12.60;99.90;;;;;;4884393;29;20587;-79
2021/05/26 05:42:34;;;;;;;2.20;0.70;;;12.90;99.90;;;;;;4910271;29;20494;-79
2021/05/26 05:44:59;;;;;;;0.70;0.70;;;12.90;99.90;;;;;;4914695;29;20426;-77
2021/05/26 05:47:25;;;;;;;1.63;0.82;;;13.00;99.90;;;;;;4909047;29;20481;-78
2021/05/26 05:49:50;;;;;;;1.30;0.80;;;13.10;99.90;;;;;;4895765;29;20411;-81
2021/05/26 05:52:16;;;;;;;0.90;0.88;;;13.00;99.90;;;;;;4878488;29;20408;-84
2021/05/26 05:54:42;;;;;;;1.17;0.95;;;13.00;99.90;;;;;;4898151;29;20447;-77
2021/05/26 05:57:08;;;;;;;2.67;1.05;;;13.00;99.90;;;;;;4921259;29;20403;-79
2021/05/26 05:59:34;;;;;;;1.48;0.93;;;12.90;99.90;;;;;;4913973;29;20750;-79
2021/05/26 06:02:00;;;;;;;2.10;0.90;;;12.90;99.90;;;;;;4911267;29;20416;-83
2021/05/26 06:04:26;;;;;;;0.70;0.70;;;13.00;99.90;;;;;;4909146;29;20415;-78
2021/05/26 06:06:51;;;;;;;1.35;1.10;;;13.20;99.90;;;;;;4919132;29;20409;-83
2021/05/26 06:09:17;;;;;;;0.90;0.90;;;13.10;99.90;;;;;;4940914;29;20402;-81
2021/05/26 06:11:46;;;;;;;0.77;0.77;;;13.20;99.90;;;;;;4902192;29;20408;-79
2021/05/26 06:14:12;;;;;;;0.90;0.90;;;13.30;99.90;;;;;;4918494;29;20416;-81
2021/05/26 06:16:38;;;;;;;0.88;0.88;;;13.20;99.90;;;;;;4889759;29;20691;-83
2021/05/26 06:19:05;;;;;;;1.40;0.85;;;13.40;99.90;;;;;;4904931;29;20816;-81
2021/05/26 06:21:31;;;;;;;1.27;0.88;;;13.50;99.90;;;;;;4909559;29;20442;-82
2021/05/26 06:23:56;;;;;;;0.85;0.85;;;13.50;99.90;;;;;;4899052;29;20399;-80
2021/05/26 06:26:22;;;;;;;1.00;0.90;;;13.50;99.90;;;;;;4908034;29;21198;-80
2021/05/26 06:28:48;;;;;;;0.80;0.80;;;13.50;99.90;;;;;;4878082;29;20403;-81
2021/05/26 06:31:15;;;;;;;0.87;0.87;;;13.60;99.90;;;;;;4896091;29;20435;-77
2021/05/26 06:33:42;;;;;;;3.53;1.10;;;13.60;99.90;;;;;;4906441;29;20419;-81
2021/05/26 06:36:09;;;;;;;0.90;0.90;;;13.60;99.90;;;;;;4890471;29;20408;-84
2021/05/26 06:38:35;;;;;;;1.85;0.98;;;13.50;99.90;;;;;;4908412;29;20414;-77
2021/05/26 06:41:00;;;;;;;1.90;1.00;;;13.60;99.90;;;;;;4883750;29;20430;-78
2021/05/26 06:43:26;;;;;;;1.03;0.90;;;13.70;99.90;;;;;;4897712;29;20956;-83
2021/05/26 06:45:52;;;;;;;1.50;1.20;;;13.90;99.90;;;;;;4871632;29;20467;-80
2021/05/26 06:48:17;;;;;;;0.80;0.80;;;14.20;99.90;;;;;;4896594;29;20404;-78
2021/05/26 06:50:43;;;;;;;0.60;0.60;;;14.50;99.90;;;;;;4882210;29;20405;-79
2021/05/26 06:53:09;;;;;;;1.33;1.10;;;14.90;99.90;;;;;;4906486;29;20407;-78
2021/05/26 06:55:34;;;;;;;1.00;0.90;;;15.00;99.90;;;;;;4889186;29;20404;-79
2021/05/26 06:58:00;;;;;;;1.48;0.85;;;14.90;99.90;;;;;;4896691;29;20479;-82
2021/05/26 07:00:26;;;;;;;1.00;0.90;;;14.70;99.90;;;;;;4890066;29;20412;-80
2021/05/26 07:02:51;;;;;;;0.75;0.75;;;14.70;99.90;;;;;;4891509;29;20404;-81
2021/05/26 07:05:17;;;;;;;1.10;0.90;;;14.70;99.90;;;;;;4905822;29;20943;-80
2021/05/26 07:07:43;;;;;;;0.98;0.93;;;14.80;99.90;;;;;;4913782;29;21020;-82
2021/05/26 07:10:09;;;;;;;0.90;0.90;;;14.90;99.90;;;;;;4873740;29;20425;-79
2021/05/26 07:12:35;;;;;;;1.15;1.10;;;15.00;99.90;;;;;;4897611;29;20492;-79
2021/05/26 07:15:00;;;;;;;2.40;1.30;;;15.10;99.90;;;;;;4885692;29;20470;-79
2021/05/26 07:17:26;;;;;;;0.90;0.90;;;15.40;99.90;;;;;;4885587;29;20412;-80
2021/05/26 07:19:51;;;;;;;1.30;1.20;;;15.70;99.90;;;;;;4902788;29;20418;-80
2021/05/26 07:22:17;;;;;;;1.30;1.00;;;15.90;99.90;;;;;;4909224;29;20415;-85
2021/05/26 07:24:43;;;;;;;2.13;1.08;;;16.00;99.90;;;;;;4908573;29;20411;-79
2021/05/26 07:27:08;;;;;;;1.40;1.00;;;16.00;99.90;;;;;;4920117;29;20398;-80
2021/05/26 07:29:35;;;;;;;1.10;1.00;;;16.00;99.90;;;;;;4911101;29;20407;-84
2021/05/26 07:32:00;;;;;;;0.95;0.95;;;15.90;99.90;;;;;;4893792;29;20401;-84
2021/05/26 07:34:26;;;;;;;0.90;0.90;;;16.10;99.90;;;;;;4912404;29;20394;-84
2021/05/26 07:36:53;;;;;;;0.90;0.90;;;16.20;99.90;;;;;;4905440;29;20392;-85
2021/05/26 07:39:19;;;;;;;1.50;0.90;;;16.30;99.90;;;;;;4904671;29;20409;-79
2021/05/26 07:41:45;;;;;;;1.58;1.35;;;16.30;99.90;;;;;;4893877;29;20416;-86
2021/05/26 07:44:11;;;;;;;1.02;1.00;;;16.20;99.90;;;;;;4918232;29;20408;-82
2021/05/26 07:46:36;;;;;;;2.50;1.10;;;15.90;99.90;;;;;;4886994;29;20396;-85
2021/05/26 07:49:02;;;;;;;3.28;1.27;;;15.80;99.90;;;;;;4915260;29;20443;-82
2021/05/26 07:51:30;;;;;;;1.63;1.40;;;15.70;99.90;;;;;;4915495;29;20414;-83
2021/05/26 07:53:55;;;;;;;1.00;1.00;;;15.70;99.90;;;;;;4903419;29;20413;-79
2021/05/26 07:56:21;;;;;;;1.10;1.00;;;15.60;99.90;;;;;;4912459;29;20396;-81
2021/05/26 07:58:47;;;;;;;0.90;0.90;;;15.80;99.90;;;;;;4910291;29;20420;-83
2021/05/26 08:01:12;;;;;;;0.80;0.80;;;16.00;99.90;;;;;;4906294;29;20416;-78
2021/05/26 08:03:38;;;;;;;0.80;0.80;;;16.00;99.90;;;;;;4908300;29;20433;-82
2021/05/26 08:06:04;;;;;;;1.42;1.00;;;16.10;99.90;;;;;;4921233;29;20500;-85
2021/05/26 08:08:30;;;;;;;1.10;1.00;;;16.10;99.90;;;;;;4918671;29;20398;-85
2021/05/26 08:10:56;;;;;;;1.08;1.00;;;16.30;99.90;;;;;;4924711;29;20407;-89
2021/05/26 08:13:22;;;;;;;1.30;1.13;;;16.30;99.90;;;;;;4926472;29;20455;-85
2021/05/26 08:15:48;;;;;;;1.73;1.07;;;16.60;99.90;;;;;;4934658;28;20411;-86
2021/05/26 08:18:19;;;;;;;1.55;1.13;;;17.00;99.90;;;;;;4916349;29;20391;-85
2021/05/26 08:20:47;;;;;;;0.85;0.85;;;17.10;99.90;;;;;;4914916;29;20399;-85
2021/05/26 08:23:16;;;;;;;0.98;0.95;;;17.30;99.90;;;;;;4945147;29;20402;-80
2021/05/26 08:25:42;;;;;;;3.00;0.77;;;17.50;99.90;;;;;;4933695;29;20439;-90
2021/05/26 08:28:09;;;;;;;1.00;0.90;;;17.60;99.90;;;;;;4918782;29;20432;-88
2021/05/26 08:30:38;;;;;;;0.90;0.90;;;17.40;99.90;;;;;;4917627;29;20417;-83
2021/05/26 08:33:07;;;;;;;1.05;0.85;;;17.30;99.90;;;;;;4931854;29;20399;-86
2021/05/26 08:35:32;;;;;;;1.00;0.90;;;17.00;99.90;;;;;;4923919;29;20444;-84
2021/05/26 08:37:58;;;;;;;2.40;0.90;;;16.90;99.90;;;;;;4916671;29;20438;-86
2021/05/26 08:40:24;;;;;;;1.75;1.00;;;17.00;99.90;;;;;;4915748;29;20467;-86
2021/05/26 08:42:49;;;;;;;0.90;0.90;;;16.90;99.90;;;;;;4921530;29;20398;-90
2021/05/26 08:45:15;;;;;;;0.90;0.90;;;17.00;99.90;;;;;;4926704;29;20434;-87
2021/05/26 08:47:41;;;;;;;2.80;1.10;;;16.80;99.90;;;;;;4924784;29;20384;-89
2021/05/26 08:50:07;;;;;;;1.45;1.35;;;17.20;99.90;;;;;;4929928;29;20403;-87
2021/05/26 08:52:33;;;;;;;1.15;1.08;;;17.20;99.90;;;;;;4918771;29;20400;-95
2021/05/26 08:54:59;;;;;;;1.10;1.00;;;17.00;99.90;;;;;;4914417;29;20420;-88
2021/05/26 08:57:25;;;;;;;3.03;1.23;;;17.00;99.90;;;;;;4928807;29;20445;-92
2021/05/26 08:59:50;;;;;;;2.10;1.10;;;16.90;99.90;;;;;;4923718;29;20402;-81
2021/05/26 09:02:16;;;;;;;1.77;1.10;;;17.00;99.90;;;;;;4908283;29;20435;-82
2021/05/26 09:04:42;;;;;;;0.80;0.80;;;17.50;99.90;;;;;;4916676;29;20438;-81
2021/05/26 09:07:22;;;;;;;1.20;1.10;;;17.70;99.90;;;;;;4920876;29;20435;-81
2021/05/26 09:09:51;;;;;;;1.30;1.00;;;18.00;99.90;;;;;;4923922;29;20960;-81
2021/05/26 09:12:28;;;;;;;1.05;0.98;;;18.30;99.90;;;;;;4936748;29;20400;-80
2021/05/26 09:14:54;;;;;;;1.33;1.00;;;18.40;99.90;;;;;;4912047;29;20416;-85
2021/05/26 09:17:20;;;;;;;2.50;0.87;;;18.00;99.90;;;;;;4913975;29;20400;-79
2021/05/26 09:19:46;;;;;;;0.88;0.88;;;18.00;99.90;;;;;;4907449;29;20411;-80
2021/05/26 09:22:15;;;;;;;1.00;0.90;;;18.30;99.90;;;;;;4901293;29;20427;-81
2021/05/26 09:24:43;;;;;;;1.90;1.10;;;18.40;99.90;;;;;;4910797;29;20404;-80
2021/05/26 09:27:15;;;;;;;0.77;0.77;;;18.60;99.90;;;;;;4930222;29;20415;-80
2021/05/26 09:29:46;;;;;;;1.60;0.90;;;18.60;99.90;;;;;;4933883;29;20395;-80
2021/05/26 09:32:17;;;;;;;0.90;0.90;;;18.60;99.90;;;;;;4919385;29;20415;-80
2021/05/26 09:34:51;;;;;;;0.80;0.80;;;18.60;99.90;;;;;;4944526;29;20498;-81
2021/05/26 09:37:19;;;;;;;1.10;1.00;;;18.60;99.90;;;;;;4918982;29;20411;-78
2021/05/26 09:39:49;;;;;;;1.95;1.00;;;18.20;99.90;;;;;;4922051;29;20399;-81
2021/05/26 09:42:24;;;;;;;1.10;1.00;;;17.90;99.90;;;;;;4914204;29;20508;-81
2021/05/26 09:45:07;;;;;;;1.13;0.85;;;17.80;99.90;;;;;;4916014;29;20407;-81
2021/05/26 09:47:38;;;;;;;1.40;0.93;;;17.60;99.90;;;;;;4916454;29;20402;-80
2021/05/26 09:50:23;;;;;;;1.05;0.95;;;17.50;99.90;;;;;;4930730;29;20483;-83
2021/05/26 09:53:01;;;;;;;0.77;0.77;;;17.40;99.90;;;;;;4923227;29;21015;-79
2021/05/26 09:55:38;;;;;;;1.70;0.90;;;17.10;99.90;;;;;;4914330;29;20403;-82
2021/05/26 09:58:04;;;;;;;0.82;0.80;;;16.80;99.90;;;;;;4917397;29;20407;-82
2021/05/26 10:00:32;;;;;;;1.40;0.97;;;16.60;99.90;;;;;;4926829;29;20388;-80
2021/05/26 10:02:58;;;;;;;2.10;0.85;;;16.30;99.90;;;;;;4887354;29;20439;-80
2021/05/26 10:05:24;;;;;;;1.10;0.90;;;16.20;99.90;;;;;;4871347;29;20994;-81
2021/05/26 10:08:15;;;;;;;1.20;1.10;;;16.00;99.90;;;;;;4900812;29;20411;-78
2021/05/26 10:11:02;;;;;;;0.85;0.85;;;15.90;99.90;;;;;;4900083;29;20415;-80
2021/05/26 10:13:30;;;;;;;0.90;0.90;;;15.90;99.90;;;;;;4912958;29;20408;-81
2021/05/26 10:15:56;;;;;;;1.08;1.02;;;16.00;99.90;;;;;;4901981;29;20913;-77
2021/05/26 10:18:22;;;;;;;1.00;0.90;;;15.90;99.90;;;;;;4912502;29;20927;-85
2021/05/26 10:20:47;;;;;;;3.58;1.05;;;15.90;99.90;;;;;;4905568;29;20981;-85
2021/05/26 10:23:17;;;;;;;0.80;0.80;;;15.90;99.90;;;;;;4896209;29;20403;-82
2021/05/26 10:25:44;;;;;;;1.70;1.00;;;15.90;99.90;;;;;;4904481;29;20434;-86
2021/05/26 10:28:27;;;;;;;0.90;0.90;;;16.00;99.90;;;;;;4897948;29;20403;-86
2021/05/26 10:30:53;;;;;;;1.48;1.08;;;16.10;99.90;;;;;;4899728;29;20403;-80
2021/05/26 10:33:19;;;;;;;1.47;1.03;;;16.20;99.90;;;;;;4896880;29;20439;-83
2021/05/26 10:35:58;;;;;;;0.95;0.80;;;16.20;99.90;;;;;;4890042;29;20431;-82
2021/05/26 10:38:23;;;;;;;1.23;1.02;;;16.30;99.90;;;;;;4911038;29;20516;-83
2021/05/26 10:40:59;;;;;;;0.90;0.90;;;16.30;99.90;;;;;;4903728;29;20562;-86
2021/05/26 10:43:25;;;;;;;1.70;1.10;;;16.30;99.90;;;;;;4896047;29;20399;-84
2021/05/26 10:45:53;;;;;;;1.23;1.10;;;16.20;99.90;;;;;;4902231;29;20399;-87
2021/05/26 10:48:41;;;;;;;1.00;0.88;;;16.20;99.90;;;;;;4913227;29;20398;-86
2021/05/26 10:51:06;;;;;;;0.90;0.90;;;16.20;99.90;;;;;;4920126;29;20410;-82
2021/05/26 10:53:42;;;;;;;1.40;0.80;;;16.20;99.90;;;;;;4915233;29;21026;-87
2021/05/26 10:56:33;;;;;;;0.85;0.85;;;16.20;99.90;;;;;;4902562;29;20407;-82
2021/05/26 10:59:14;;;;;;;1.08;0.98;;;16.10;99.90;;;;;;4925113;29;20457;-80
2021/05/26 11:02:04;;;;;;;1.80;0.87;;;16.30;99.90;;;;;;4882188;29;20439;-81
2021/05/26 11:04:31;;;;;;;0.95;0.88;;;16.50;99.90;;;;;;4907859;29;20436;-82
2021/05/26 11:07:19;;;;;;;2.50;1.15;;;16.50;99.90;;;;;;4894098;29;20462;-82
2021/05/26 11:10:11;;;;;;;0.80;0.80;;;16.60;99.90;;;;;;4888062;29;20829;-83
2021/05/26 11:12:54;;;;;;;1.90;1.00;;;16.50;99.90;;;;;;4903188;29;20459;-83
2021/05/26 11:15:38;;;;;;;1.10;1.00;;;16.40;99.90;;;;;;4936828;29;20426;-80
2021/05/26 11:20:52;;;;;;;1.48;1.38;;;16.10;99.90;;;;;;4904756;29;20431;-82
2021/05/26 11:23:18;;;;;;;1.00;1.00;;;16.00;99.90;;;;;;4907892;29;20448;-84
2021/05/26 11:25:57;;;;;;;1.20;1.00;;;16.00;99.90;;;;;;4920773;29;20398;-86
2021/05/26 11:28:32;;;;;;;0.80;0.80;;;15.80;99.90;;;;;;4905527;29;20431;-78
2021/05/26 11:31:02;;;;;;;1.00;0.90;;;15.80;99.90;;;;;;4903880;29;20391;-83
2021/05/26 11:33:27;;;;;;;1.03;1.03;;;15.70;99.90;;;;;;4920006;29;20404;-87
2021/05/26 11:35:58;;;;;;;2.78;1.20;;;15.70;99.90;;;;;;4912081;29;20468;-85
2021/05/26 11:38:25;;;;;;;1.15;1.10;;;15.70;99.90;;;;;;4915559;29;20394;-89
2021/05/26 11:40:50;;;;;;;1.08;1.02;;;15.60;99.90;;;;;;4896789;29;20395;-88
2021/05/26 11:43:18;;;;;;;0.90;0.90;;;15.60;99.90;;;;;;4885363;29;20411;-82
2021/05/26 11:45:43;;;;;;;0.87;0.87;;;15.60;99.90;;;;;;4895214;29;20594;-86
2021/05/26 11:48:09;;;;;;;1.27;1.17;;;15.40;99.90;;;;;;4884907;29;20408;-82
2021/05/26 11:50:37;;;;;;;1.43;1.20;;;15.10;99.90;;;;;;4884467;29;20415;-85
2021/05/26 11:53:02;;;;;;;1.23;1.13;;;15.00;99.90;;;;;;4907880;29;20417;-82
2021/05/26 11:55:28;;;;;;;1.30;1.05;;;14.90;99.90;;;;;;4943854;29;20407;-84
2021/05/26 11:57:54;;;;;;;1.00;1.00;;;14.90;99.90;;;;;;4912181;29;20403;-86
2021/05/26 12:00:30;;;;;;;1.40;1.30;;;14.90;99.90;;;;;;4901814;29;20411;-82
2021/05/26 12:02:57;;;;;;;2.07;1.40;;;15.00;99.90;;;;;;4907706;29;20415;-83
2021/05/26 12:05:40;;;;;;;2.47;1.40;;;15.00;99.90;;;;;;4936059;29;20414;-86
2021/05/26 12:08:25;;;;;;;2.10;1.08;;;14.80;99.90;;;;;;4915643;29;20415;-83
2021/05/26 12:11:02;;;;;;;1.75;1.40;;;14.70;99.90;;;;;;4907243;29;20435;-86
2021/05/26 12:13:38;;;;;;;2.95;1.85;;;14.70;99.90;;;;;;4917323;29;20461;-84
2021/05/26 12:16:09;;;;;;;1.50;1.40;;;14.80;99.90;;;;;;4897185;29;20419;-84
2021/05/26 12:18:35;;;;;;;2.00;1.30;;;14.80;99.90;;;;;;4892245;29;20415;-81
2021/05/26 12:21:00;;;;;;;1.63;1.30;;;14.90;99.90;;;;;;4897628;29;20404;-82
2021/05/26 12:23:33;;;;;;;3.13;1.35;;;15.00;99.90;;;;;;4925178;29;20411;-84
2021/05/26 12:25:58;;;;;;;1.17;1.08;;;15.00;99.90;;;;;;4912626;29;21001;-84
2021/05/26 12:28:26;;;;;;;1.30;1.20;;;15.00;99.90;;;;;;4902262;29;20409;-86
2021/05/26 12:30:51;;;;;;;1.47;1.37;;;15.10;99.90;;;;;;4916191;29;20387;-84
2021/05/26 12:33:19;;;;;;;1.38;1.30;;;15.00;99.90;;;;;;4907966;29;20413;-84
2021/05/26 12:35:58;;;;;;;1.10;1.00;;;15.00;99.90;;;;;;4901976;29;20419;-86
2021/05/26 12:38:23;;;;;;;1.20;1.15;;;15.00;99.90;;;;;;4911130;29;20414;-85
2021/05/26 12:40:49;;;;;;;1.00;1.00;;;14.80;99.90;;;;;;4917800;29;20399;-85
2021/05/26 12:43:29;;;;;;;1.58;1.10;;;14.60;99.90;;;;;;4922419;29;20427;-85
2021/05/26 12:45:55;;;;;;;0.82;0.82;;;14.60;99.90;;;;;;4890619;29;20410;-81
2021/05/26 12:48:21;;;;;;;1.07;0.97;;;14.70;99.90;;;;;;4890713;29;20414;-86
2021/05/26 12:50:47;;;;;;;1.08;1.08;;;14.70;99.90;;;;;;4900032;29;20407;-84
2021/05/26 12:53:14;;;;;;;1.23;0.98;;;14.60;99.90;;;;;;4908451;29;20502;-83
2021/05/26 12:55:40;;;;;;;1.23;0.85;;;14.60;99.90;;;;;;4912620;29;20403;-83
2021/05/26 12:58:10;;;;;;;0.70;0.70;;;14.60;99.90;;;;;;4885185;29;20423;-90
2021/05/26 13:00:39;;;;;;;0.82;0.82;;;14.60;99.90;;;;;;4909545;29;20403;-90
2021/05/26 13:03:09;;;;;;;1.05;0.95;;;14.60;99.90;;;;;;4908037;29;20419;-84